sensor_id;sensor_type;location;lat;lon;timestamp;P1;durP1;ratioP1;P2;durP2;ratioP2
20080;SDS011;10200;49.232;9.222;2023-07-30T00:01:58;2.78;;;2.50;;
20080;SDS011;10200;49.232;9.222;2023-07-30T00:04:24;3.22;;;2.65;;
20080;SDS011;10200;49.232;9.222;2023-07-30T00:06:50;6.30;;;2.67;;
20080;SDS011;10200;49.232;9.222;2023-07-30T00:09:15;3.03;;;2.55;;
20080;SDS011;10200;49.232;9.222;2023-07-30T00:11:41;3.13;;;2.42;;
20080;SDS011;10200;49.232;9.222;2023-07-30T00:14:10;2.75;;;2.33;;
20080;SDS011;10200;49.232;9.222;2023-07-30T00:16:36;2.72;;;2.42;;
20080;SDS011;10200;49.232;9.222;2023-07-30T00:19:01;4.03;;;2.70;;
20080;SDS011;10200;49.232;9.222;2023-07-30T00:21:28;3.15;;;2.65;;
20080;SDS011;10200;49.232;9.222;2023-07-30T00:23:53;2.72;;;2.42;;
20080;SDS011;10200;49.232;9.222;2023-07-30T00:26:19;5.05;;;2.60;;
20080;SDS011;10200;49.232;9.222;2023-07-30T00:28:45;4.07;;;2.95;;
20080;SDS011;10200;49.232;9.222;2023-07-30T00:31:11;3.40;;;2.40;;
20080;SDS011;10200;49.232;9.222;2023-07-30T00:33:36;3.53;;;2.80;;
20080;SDS011;10200;49.232;9.222;2023-07-30T00:36:02;4.15;;;3.28;;
20080;SDS011;10200;49.232;9.222;2023-07-30T00:38:28;5.72;;;3.03;;
20080;SDS011;10200;49.232;9.222;2023-07-30T00:40:53;6.05;;;3.72;;
20080;SDS011;10200;49.232;9.222;2023-07-30T00:43:20;5.93;;;3.58;;
20080;SDS011;10200;49.232;9.222;2023-07-30T00:45:46;3.72;;;2.55;;
20080;SDS011;10200;49.232;9.222;2023-07-30T00:48:12;4.50;;;4.10;;
20080;SDS011;10200;49.232;9.222;2023-07-30T00:50:39;2.97;;;2.63;;
20080;SDS011;10200;49.232;9.222;2023-07-30T00:53:05;2.80;;;2.53;;
20080;SDS011;10200;49.232;9.222;2023-07-30T00:55:33;2.88;;;2.10;;
20080;SDS011;10200;49.232;9.222;2023-07-30T00:58:00;2.03;;;1.85;;
20080;SDS011;10200;49.232;9.222;2023-07-30T01:00:26;2.83;;;2.10;;
20080;SDS011;10200;49.232;9.222;2023-07-30T01:02:53;2.55;;;2.28;;
20080;SDS011;10200;49.232;9.222;2023-07-30T01:05:19;3.67;;;2.30;;
20080;SDS011;10200;49.232;9.222;2023-07-30T01:07:45;2.08;;;1.85;;
20080;SDS011;10200;49.232;9.222;2023-07-30T01:10:12;2.80;;;2.13;;
20080;SDS011;10200;49.232;9.222;2023-07-30T01:12:37;3.60;;;2.30;;
20080;SDS011;10200;49.232;9.222;2023-07-30T01:15:04;3.58;;;2.55;;
20080;SDS011;10200;49.232;9.222;2023-07-30T01:17:30;3.75;;;2.13;;
20080;SDS011;10200;49.232;9.222;2023-07-30T01:19:56;3.42;;;2.10;;
20080;SDS011;10200;49.232;9.222;2023-07-30T01:22:22;2.17;;;1.88;;
20080;SDS011;10200;49.232;9.222;2023-07-30T01:24:48;3.05;;;2.00;;
20080;SDS011;10200;49.232;9.222;2023-07-30T01:27:16;2.30;;;2.10;;
20080;SDS011;10200;49.232;9.222;2023-07-30T01:29:53;2.45;;;1.65;;
20080;SDS011;10200;49.232;9.222;2023-07-30T01:32:25;3.25;;;2.28;;
20080;SDS011;10200;49.232;9.222;2023-07-30T01:34:54;2.70;;;1.63;;
20080;SDS011;10200;49.232;9.222;2023-07-30T01:37:22;1.75;;;1.60;;
20080;SDS011;10200;49.232;9.222;2023-07-30T01:39:49;2.15;;;1.58;;
20080;SDS011;10200;49.232;9.222;2023-07-30T01:42:15;3.70;;;1.80;;
20080;SDS011;10200;49.232;9.222;2023-07-30T01:44:41;2.75;;;1.67;;
20080;SDS011;10200;49.232;9.222;2023-07-30T01:47:07;2.15;;;1.42;;
20080;SDS011;10200;49.232;9.222;2023-07-30T01:49:33;1.77;;;1.50;;
20080;SDS011;10200;49.232;9.222;2023-07-30T01:51:59;2.05;;;1.65;;
20080;SDS011;10200;49.232;9.222;2023-07-30T01:54:24;2.08;;;1.92;;
20080;SDS011;10200;49.232;9.222;2023-07-30T01:56:51;2.08;;;1.70;;
20080;SDS011;10200;49.232;9.222;2023-07-30T01:59:18;3.28;;;1.33;;
20080;SDS011;10200;49.232;9.222;2023-07-30T02:01:43;1.75;;;1.50;;
20080;SDS011;10200;49.232;9.222;2023-07-30T02:04:10;3.55;;;1.75;;
20080;SDS011;10200;49.232;9.222;2023-07-30T02:06:35;6.38;;;1.67;;
20080;SDS011;10200;49.232;9.222;2023-07-30T02:09:01;2.38;;;1.65;;
20080;SDS011;10200;49.232;9.222;2023-07-30T02:11:27;1.90;;;1.50;;
20080;SDS011;10200;49.232;9.222;2023-07-30T02:13:53;5.05;;;1.83;;
20080;SDS011;10200;49.232;9.222;2023-07-30T02:16:19;1.90;;;1.70;;
20080;SDS011;10200;49.232;9.222;2023-07-30T02:18:44;2.25;;;1.55;;
20080;SDS011;10200;49.232;9.222;2023-07-30T02:21:10;1.95;;;1.40;;
20080;SDS011;10200;49.232;9.222;2023-07-30T02:23:36;1.63;;;1.40;;
20080;SDS011;10200;49.232;9.222;2023-07-30T02:26:01;2.55;;;1.30;;
20080;SDS011;10200;49.232;9.222;2023-07-30T02:28:27;1.40;;;1.30;;
20080;SDS011;10200;49.232;9.222;2023-07-30T02:30:53;2.90;;;1.17;;
20080;SDS011;10200;49.232;9.222;2023-07-30T02:33:18;3.42;;;1.17;;
20080;SDS011;10200;49.232;9.222;2023-07-30T02:35:44;1.70;;;1.60;;
20080;SDS011;10200;49.232;9.222;2023-07-30T02:38:10;1.30;;;1.20;;
20080;SDS011;10200;49.232;9.222;2023-07-30T02:40:36;1.38;;;1.27;;
20080;SDS011;10200;49.232;9.222;2023-07-30T02:43:02;1.90;;;1.67;;
20080;SDS011;10200;49.232;9.222;2023-07-30T02:45:27;1.60;;;1.50;;
20080;SDS011;10200;49.232;9.222;2023-07-30T02:47:53;3.05;;;1.35;;
20080;SDS011;10200;49.232;9.222;2023-07-30T02:50:19;2.13;;;1.10;;
20080;SDS011;10200;49.232;9.222;2023-07-30T02:52:45;2.25;;;1.67;;
20080;SDS011;10200;49.232;9.222;2023-07-30T02:55:12;1.98;;;1.40;;
20080;SDS011;10200;49.232;9.222;2023-07-30T02:57:38;2.35;;;1.23;;
20080;SDS011;10200;49.232;9.222;2023-07-30T03:00:04;1.10;;;1.00;;
20080;SDS011;10200;49.232;9.222;2023-07-30T03:02:30;1.38;;;1.20;;
20080;SDS011;10200;49.232;9.222;2023-07-30T03:04:56;1.13;;;1.02;;
20080;SDS011;10200;49.232;9.222;2023-07-30T03:07:22;1.10;;;1.00;;
20080;SDS011;10200;49.232;9.222;2023-07-30T03:09:47;1.65;;;1.45;;
20080;SDS011;10200;49.232;9.222;2023-07-30T03:12:13;1.00;;;0.90;;
20080;SDS011;10200;49.232;9.222;2023-07-30T03:14:39;2.28;;;1.23;;
20080;SDS011;10200;49.232;9.222;2023-07-30T03:17:05;1.60;;;1.30;;
20080;SDS011;10200;49.232;9.222;2023-07-30T03:19:31;1.27;;;0.98;;
20080;SDS011;10200;49.232;9.222;2023-07-30T03:21:56;2.28;;;1.10;;
20080;SDS011;10200;49.232;9.222;2023-07-30T03:24:22;1.40;;;1.25;;
20080;SDS011;10200;49.232;9.222;2023-07-30T03:26:48;3.65;;;1.45;;
20080;SDS011;10200;49.232;9.222;2023-07-30T03:29:14;1.80;;;1.35;;
20080;SDS011;10200;49.232;9.222;2023-07-30T03:31:40;3.28;;;1.73;;
20080;SDS011;10200;49.232;9.222;2023-07-30T03:34:07;1.67;;;1.45;;
20080;SDS011;10200;49.232;9.222;2023-07-30T03:36:33;1.83;;;1.50;;
20080;SDS011;10200;49.232;9.222;2023-07-30T03:38:58;2.60;;;1.30;;
20080;SDS011;10200;49.232;9.222;2023-07-30T03:41:24;5.78;;;1.55;;
20080;SDS011;10200;49.232;9.222;2023-07-30T03:43:50;1.67;;;1.30;;
20080;SDS011;10200;49.232;9.222;2023-07-30T03:46:16;1.80;;;1.38;;
20080;SDS011;10200;49.232;9.222;2023-07-30T03:48:41;2.28;;;1.65;;
20080;SDS011;10200;49.232;9.222;2023-07-30T03:51:07;2.70;;;1.48;;
20080;SDS011;10200;49.232;9.222;2023-07-30T03:53:33;5.80;;;1.52;;
20080;SDS011;10200;49.232;9.222;2023-07-30T03:56:01;2.03;;;1.83;;
20080;SDS011;10200;49.232;9.222;2023-07-30T03:58:27;4.30;;;1.67;;
20080;SDS011;10200;49.232;9.222;2023-07-30T04:00:53;2.17;;;1.50;;
20080;SDS011;10200;49.232;9.222;2023-07-30T04:03:18;1.40;;;1.30;;
20080;SDS011;10200;49.232;9.222;2023-07-30T04:05:45;1.75;;;1.40;;
20080;SDS011;10200;49.232;9.222;2023-07-30T04:08:10;1.65;;;1.38;;
20080;SDS011;10200;49.232;9.222;2023-07-30T04:10:36;1.75;;;1.65;;
20080;SDS011;10200;49.232;9.222;2023-07-30T04:13:01;3.28;;;1.60;;
20080;SDS011;10200;49.232;9.222;2023-07-30T04:15:27;2.50;;;1.55;;
20080;SDS011;10200;49.232;9.222;2023-07-30T04:17:53;2.08;;;1.58;;
20080;SDS011;10200;49.232;9.222;2023-07-30T04:20:19;3.70;;;1.73;;
20080;SDS011;10200;49.232;9.222;2023-07-30T04:22:44;1.65;;;1.55;;
20080;SDS011;10200;49.232;9.222;2023-07-30T04:25:10;3.83;;;1.42;;
20080;SDS011;10200;49.232;9.222;2023-07-30T04:27:37;2.17;;;1.70;;
20080;SDS011;10200;49.232;9.222;2023-07-30T04:30:04;1.88;;;1.55;;
20080;SDS011;10200;49.232;9.222;2023-07-30T04:32:31;2.17;;;1.50;;
20080;SDS011;10200;49.232;9.222;2023-07-30T04:34:56;3.65;;;1.60;;
20080;SDS011;10200;49.232;9.222;2023-07-30T04:37:22;2.90;;;1.90;;
20080;SDS011;10200;49.232;9.222;2023-07-30T04:39:49;2.65;;;1.88;;
20080;SDS011;10200;49.232;9.222;2023-07-30T04:42:14;2.60;;;1.63;;
20080;SDS011;10200;49.232;9.222;2023-07-30T04:44:40;2.75;;;1.75;;
20080;SDS011;10200;49.232;9.222;2023-07-30T04:47:07;1.40;;;1.30;;
20080;SDS011;10200;49.232;9.222;2023-07-30T04:49:33;3.45;;;1.77;;
20080;SDS011;10200;49.232;9.222;2023-07-30T04:51:59;4.55;;;2.08;;
20080;SDS011;10200;49.232;9.222;2023-07-30T04:54:24;3.15;;;1.95;;
20080;SDS011;10200;49.232;9.222;2023-07-30T04:56:50;2.25;;;2.05;;
20080;SDS011;10200;49.232;9.222;2023-07-30T04:59:16;5.10;;;1.63;;
20080;SDS011;10200;49.232;9.222;2023-07-30T05:01:41;9.38;;;2.63;;
20080;SDS011;10200;49.232;9.222;2023-07-30T05:04:07;7.75;;;2.42;;
20080;SDS011;10200;49.232;9.222;2023-07-30T05:06:33;11.50;;;4.60;;
20080;SDS011;10200;49.232;9.222;2023-07-30T05:08:58;7.30;;;2.85;;
20080;SDS011;10200;49.232;9.222;2023-07-30T05:11:24;5.20;;;2.20;;
20080;SDS011;10200;49.232;9.222;2023-07-30T05:13:49;6.38;;;2.83;;
20080;SDS011;10200;49.232;9.222;2023-07-30T05:16:15;6.35;;;3.08;;
20080;SDS011;10200;49.232;9.222;2023-07-30T05:18:41;4.72;;;2.63;;
20080;SDS011;10200;49.232;9.222;2023-07-30T05:21:06;2.92;;;1.95;;
20080;SDS011;10200;49.232;9.222;2023-07-30T05:23:32;4.28;;;1.98;;
20080;SDS011;10200;49.232;9.222;2023-07-30T05:25:58;3.35;;;1.73;;
20080;SDS011;10200;49.232;9.222;2023-07-30T05:28:23;2.03;;;1.67;;
20080;SDS011;10200;49.232;9.222;2023-07-30T05:30:49;1.75;;;1.50;;
20080;SDS011;10200;49.232;9.222;2023-07-30T05:33:15;1.80;;;1.42;;
20080;SDS011;10200;49.232;9.222;2023-07-30T05:35:40;3.17;;;1.30;;
20080;SDS011;10200;49.232;9.222;2023-07-30T05:38:06;1.70;;;1.50;;
20080;SDS011;10200;49.232;9.222;2023-07-30T05:40:33;2.20;;;1.30;;
20080;SDS011;10200;49.232;9.222;2023-07-30T05:43:00;4.03;;;1.52;;
20080;SDS011;10200;49.232;9.222;2023-07-30T05:45:26;5.30;;;1.80;;
20080;SDS011;10200;49.232;9.222;2023-07-30T05:47:52;2.05;;;1.45;;
20080;SDS011;10200;49.232;9.222;2023-07-30T05:50:17;1.60;;;1.13;;
20080;SDS011;10200;49.232;9.222;2023-07-30T05:52:43;1.40;;;1.30;;
20080;SDS011;10200;49.232;9.222;2023-07-30T05:55:09;2.75;;;1.77;;
20080;SDS011;10200;49.232;9.222;2023-07-30T05:57:34;2.88;;;1.45;;
20080;SDS011;10200;49.232;9.222;2023-07-30T06:00:00;1.80;;;1.17;;
20080;SDS011;10200;49.232;9.222;2023-07-30T06:02:26;4.93;;;1.33;;
20080;SDS011;10200;49.232;9.222;2023-07-30T06:04:51;2.63;;;1.95;;
20080;SDS011;10200;49.232;9.222;2023-07-30T06:07:17;3.72;;;1.70;;
20080;SDS011;10200;49.232;9.222;2023-07-30T06:09:43;1.98;;;1.75;;
20080;SDS011;10200;49.232;9.222;2023-07-30T06:12:10;1.90;;;1.20;;
20080;SDS011;10200;49.232;9.222;2023-07-30T06:14:36;3.90;;;1.30;;
20080;SDS011;10200;49.232;9.222;2023-07-30T06:17:01;2.28;;;1.60;;
20080;SDS011;10200;49.232;9.222;2023-07-30T06:19:27;6.72;;;1.85;;
20080;SDS011;10200;49.232;9.222;2023-07-30T06:21:52;1.23;;;1.13;;
20080;SDS011;10200;49.232;9.222;2023-07-30T06:24:18;3.40;;;1.80;;
20080;SDS011;10200;49.232;9.222;2023-07-30T06:26:44;3.75;;;1.33;;
20080;SDS011;10200;49.232;9.222;2023-07-30T06:29:09;2.78;;;1.80;;
20080;SDS011;10200;49.232;9.222;2023-07-30T06:31:35;2.00;;;1.35;;
20080;SDS011;10200;49.232;9.222;2023-07-30T06:34:00;2.22;;;1.45;;
20080;SDS011;10200;49.232;9.222;2023-07-30T06:36:26;3.30;;;1.42;;
20080;SDS011;10200;49.232;9.222;2023-07-30T06:38:51;2.70;;;1.20;;
20080;SDS011;10200;49.232;9.222;2023-07-30T06:41:17;2.05;;;1.13;;
20080;SDS011;10200;49.232;9.222;2023-07-30T06:43:43;3.22;;;1.40;;
20080;SDS011;10200;49.232;9.222;2023-07-30T06:46:09;2.90;;;1.20;;
20080;SDS011;10200;49.232;9.222;2023-07-30T06:48:34;1.38;;;1.27;;
20080;SDS011;10200;49.232;9.222;2023-07-30T06:51:00;6.45;;;1.80;;
20080;SDS011;10200;49.232;9.222;2023-07-30T06:53:26;1.60;;;1.50;;
20080;SDS011;10200;49.232;9.222;2023-07-30T06:55:51;2.05;;;1.40;;
20080;SDS011;10200;49.232;9.222;2023-07-30T06:58:17;1.80;;;1.50;;
20080;SDS011;10200;49.232;9.222;2023-07-30T07:00:42;4.25;;;1.65;;
20080;SDS011;10200;49.232;9.222;2023-07-30T07:03:08;2.90;;;1.90;;
20080;SDS011;10200;49.232;9.222;2023-07-30T07:05:34;1.60;;;1.50;;
20080;SDS011;10200;49.232;9.222;2023-07-30T07:07:59;6.07;;;1.60;;
20080;SDS011;10200;49.232;9.222;2023-07-30T07:10:25;1.48;;;1.27;;
20080;SDS011;10200;49.232;9.222;2023-07-30T07:12:50;2.03;;;1.70;;
20080;SDS011;10200;49.232;9.222;2023-07-30T07:15:16;1.95;;;1.75;;
20080;SDS011;10200;49.232;9.222;2023-07-30T07:17:42;2.00;;;1.80;;
20080;SDS011;10200;49.232;9.222;2023-07-30T07:20:07;5.65;;;1.73;;
20080;SDS011;10200;49.232;9.222;2023-07-30T07:22:33;3.25;;;1.33;;
20080;SDS011;10200;49.232;9.222;2023-07-30T07:24:59;1.83;;;1.42;;
20080;SDS011;10200;49.232;9.222;2023-07-30T07:27:25;1.58;;;1.45;;
20080;SDS011;10200;49.232;9.222;2023-07-30T07:29:52;3.45;;;1.48;;
20080;SDS011;10200;49.232;9.222;2023-07-30T07:32:18;1.38;;;1.27;;
20080;SDS011;10200;49.232;9.222;2023-07-30T07:34:49;4.03;;;1.83;;
20080;SDS011;10200;49.232;9.222;2023-07-30T07:37:15;2.90;;;1.33;;
20080;SDS011;10200;49.232;9.222;2023-07-30T07:39:43;4.47;;;1.60;;
20080;SDS011;10200;49.232;9.222;2023-07-30T07:42:12;1.88;;;1.70;;
20080;SDS011;10200;49.232;9.222;2023-07-30T07:44:38;2.55;;;1.60;;
20080;SDS011;10200;49.232;9.222;2023-07-30T07:47:03;2.20;;;1.85;;
20080;SDS011;10200;49.232;9.222;2023-07-30T07:49:29;4.97;;;1.90;;
20080;SDS011;10200;49.232;9.222;2023-07-30T07:51:55;1.80;;;1.50;;
20080;SDS011;10200;49.232;9.222;2023-07-30T07:54:20;1.67;;;1.42;;
20080;SDS011;10200;49.232;9.222;2023-07-30T07:56:46;2.10;;;1.48;;
20080;SDS011;10200;49.232;9.222;2023-07-30T07:59:12;1.80;;;1.63;;
20080;SDS011;10200;49.232;9.222;2023-07-30T08:01:38;2.58;;;1.52;;
20080;SDS011;10200;49.232;9.222;2023-07-30T08:04:03;1.90;;;1.80;;
20080;SDS011;10200;49.232;9.222;2023-07-30T08:06:29;3.38;;;1.95;;
20080;SDS011;10200;49.232;9.222;2023-07-30T08:08:57;1.50;;;1.40;;
20080;SDS011;10200;49.232;9.222;2023-07-30T08:11:23;1.30;;;1.20;;
20080;SDS011;10200;49.232;9.222;2023-07-30T08:13:48;1.30;;;1.20;;
20080;SDS011;10200;49.232;9.222;2023-07-30T08:16:14;1.70;;;1.25;;
20080;SDS011;10200;49.232;9.222;2023-07-30T08:18:40;1.48;;;1.38;;
20080;SDS011;10200;49.232;9.222;2023-07-30T08:21:05;1.67;;;1.30;;
20080;SDS011;10200;49.232;9.222;2023-07-30T08:23:31;1.75;;;1.35;;
20080;SDS011;10200;49.232;9.222;2023-07-30T08:25:57;1.10;;;1.00;;
20080;SDS011;10200;49.232;9.222;2023-07-30T08:28:22;1.85;;;1.67;;
20080;SDS011;10200;49.232;9.222;2023-07-30T08:30:48;1.98;;;1.38;;
20080;SDS011;10200;49.232;9.222;2023-07-30T08:33:14;1.80;;;1.48;;
20080;SDS011;10200;49.232;9.222;2023-07-30T08:35:40;1.60;;;1.45;;
20080;SDS011;10200;49.232;9.222;2023-07-30T08:38:07;1.38;;;1.27;;
20080;SDS011;10200;49.232;9.222;2023-07-30T08:40:32;1.60;;;1.50;;
20080;SDS011;10200;49.232;9.222;2023-07-30T08:42:59;1.30;;;1.20;;
20080;SDS011;10200;49.232;9.222;2023-07-30T08:45:24;2.97;;;1.90;;
20080;SDS011;10200;49.232;9.222;2023-07-30T08:47:50;1.48;;;1.38;;
20080;SDS011;10200;49.232;9.222;2023-07-30T08:50:17;4.00;;;1.83;;
20080;SDS011;10200;49.232;9.222;2023-07-30T08:52:42;2.35;;;1.77;;
20080;SDS011;10200;49.232;9.222;2023-07-30T08:55:08;2.30;;;1.73;;
20080;SDS011;10200;49.232;9.222;2023-07-30T08:57:36;2.08;;;1.88;;
20080;SDS011;10200;49.232;9.222;2023-07-30T09:00:05;1.83;;;1.73;;
20080;SDS011;10200;49.232;9.222;2023-07-30T09:02:50;3.45;;;1.80;;
20080;SDS011;10200;49.232;9.222;2023-07-30T09:05:19;2.40;;;1.92;;
20080;SDS011;10200;49.232;9.222;2023-07-30T09:07:45;4.05;;;1.95;;
20080;SDS011;10200;49.232;9.222;2023-07-30T09:10:12;2.00;;;1.80;;
20080;SDS011;10200;49.232;9.222;2023-07-30T09:12:38;2.00;;;1.80;;
20080;SDS011;10200;49.232;9.222;2023-07-30T09:15:05;2.38;;;1.80;;
20080;SDS011;10200;49.232;9.222;2023-07-30T09:17:32;1.92;;;1.40;;
20080;SDS011;10200;49.232;9.222;2023-07-30T09:19:59;2.08;;;1.33;;
20080;SDS011;10200;49.232;9.222;2023-07-30T09:22:26;2.33;;;1.35;;
20080;SDS011;10200;49.232;9.222;2023-07-30T09:24:53;1.60;;;1.50;;
20080;SDS011;10200;49.232;9.222;2023-07-30T09:27:20;2.05;;;1.70;;
20080;SDS011;10200;49.232;9.222;2023-07-30T09:29:53;1.55;;;1.45;;
20080;SDS011;10200;49.232;9.222;2023-07-30T09:32:20;1.52;;;1.42;;
20080;SDS011;10200;49.232;9.222;2023-07-30T09:34:50;1.98;;;1.50;;
20080;SDS011;10200;49.232;9.222;2023-07-30T09:37:17;1.70;;;1.50;;
20080;SDS011;10200;49.232;9.222;2023-07-30T09:39:42;1.63;;;1.40;;
20080;SDS011;10200;49.232;9.222;2023-07-30T09:42:08;1.30;;;1.20;;
20080;SDS011;10200;49.232;9.222;2023-07-30T09:44:35;1.67;;;1.58;;
20080;SDS011;10200;49.232;9.222;2023-07-30T09:47:03;2.30;;;1.33;;
20080;SDS011;10200;49.232;9.222;2023-07-30T09:49:33;1.50;;;1.40;;
20080;SDS011;10200;49.232;9.222;2023-07-30T09:51:59;1.30;;;1.20;;
20080;SDS011;10200;49.232;9.222;2023-07-30T09:54:26;2.28;;;1.40;;
20080;SDS011;10200;49.232;9.222;2023-07-30T09:56:52;1.50;;;1.40;;
20080;SDS011;10200;49.232;9.222;2023-07-30T09:59:18;2.10;;;1.48;;
20080;SDS011;10200;49.232;9.222;2023-07-30T10:01:44;1.77;;;1.13;;
20080;SDS011;10200;49.232;9.222;2023-07-30T10:04:13;1.25;;;1.15;;
20080;SDS011;10200;49.232;9.222;2023-07-30T10:06:42;1.17;;;1.08;;
20080;SDS011;10200;49.232;9.222;2023-07-30T10:09:33;1.52;;;1.38;;
20080;SDS011;10200;49.232;9.222;2023-07-30T10:12:11;4.22;;;1.50;;
20080;SDS011;10200;49.232;9.222;2023-07-30T10:14:40;3.72;;;1.52;;
20080;SDS011;10200;49.232;9.222;2023-07-30T10:17:09;2.88;;;1.40;;
20080;SDS011;10200;49.232;9.222;2023-07-30T10:19:36;2.60;;;1.55;;
20080;SDS011;10200;49.232;9.222;2023-07-30T10:25:00;1.40;;;1.30;;
20080;SDS011;10200;49.232;9.222;2023-07-30T10:27:36;2.28;;;1.60;;
20080;SDS011;10200;49.232;9.222;2023-07-30T10:30:15;1.50;;;1.30;;
20080;SDS011;10200;49.232;9.222;2023-07-30T10:38:19;4.00;;;1.67;;
20080;SDS011;10200;49.232;9.222;2023-07-30T10:41:15;1.95;;;1.45;;
20080;SDS011;10200;49.232;9.222;2023-07-30T10:43:47;1.90;;;1.27;;
20080;SDS011;10200;49.232;9.222;2023-07-30T10:46:14;1.98;;;1.48;;
20080;SDS011;10200;49.232;9.222;2023-07-30T10:48:45;3.20;;;1.35;;
20080;SDS011;10200;49.232;9.222;2023-07-30T10:51:12;3.72;;;1.40;;
20080;SDS011;10200;49.232;9.222;2023-07-30T10:53:47;1.58;;;1.40;;
20080;SDS011;10200;49.232;9.222;2023-07-30T10:56:20;2.45;;;1.30;;
20080;SDS011;10200;49.232;9.222;2023-07-30T10:58:49;2.60;;;1.40;;
20080;SDS011;10200;49.232;9.222;2023-07-30T11:01:17;1.52;;;1.40;;
20080;SDS011;10200;49.232;9.222;2023-07-30T11:03:42;4.72;;;1.50;;
20080;SDS011;10200;49.232;9.222;2023-07-30T11:06:09;2.25;;;1.25;;
20080;SDS011;10200;49.232;9.222;2023-07-30T11:08:39;4.35;;;1.60;;
20080;SDS011;10200;49.232;9.222;2023-07-30T11:11:08;3.72;;;1.48;;
20080;SDS011;10200;49.232;9.222;2023-07-30T11:13:35;2.45;;;1.20;;
20080;SDS011;10200;49.232;9.222;2023-07-30T11:16:14;3.58;;;1.73;;
20080;SDS011;10200;49.232;9.222;2023-07-30T11:18:41;1.92;;;1.52;;
20080;SDS011;10200;49.232;9.222;2023-07-30T11:21:12;1.67;;;1.10;;
20080;SDS011;10200;49.232;9.222;2023-07-30T11:23:39;2.72;;;1.35;;
20080;SDS011;10200;49.232;9.222;2023-07-30T11:26:12;1.65;;;1.38;;
20080;SDS011;10200;49.232;9.222;2023-07-30T11:28:44;1.95;;;1.38;;
20080;SDS011;10200;49.232;9.222;2023-07-30T11:31:11;2.95;;;2.08;;
20080;SDS011;10200;49.232;9.222;2023-07-30T11:33:45;2.00;;;1.30;;
20080;SDS011;10200;49.232;9.222;2023-07-30T11:36:16;1.90;;;1.55;;
20080;SDS011;10200;49.232;9.222;2023-07-30T11:38:44;1.50;;;1.40;;
20080;SDS011;10200;49.232;9.222;2023-07-30T11:41:11;4.93;;;1.30;;
20080;SDS011;10200;49.232;9.222;2023-07-30T11:43:38;3.38;;;1.02;;
20080;SDS011;10200;49.232;9.222;2023-07-30T11:46:06;2.08;;;1.30;;
20080;SDS011;10200;49.232;9.222;2023-07-30T11:48:33;2.00;;;1.23;;
20080;SDS011;10200;49.232;9.222;2023-07-30T11:50:59;2.08;;;1.13;;
20080;SDS011;10200;49.232;9.222;2023-07-30T11:53:43;3.05;;;1.27;;
20080;SDS011;10200;49.232;9.222;2023-07-30T11:56:16;1.20;;;1.10;;
20080;SDS011;10200;49.232;9.222;2023-07-30T11:58:43;1.70;;;1.10;;
20080;SDS011;10200;49.232;9.222;2023-07-30T12:01:10;1.67;;;1.00;;
20080;SDS011;10200;49.232;9.222;2023-07-30T12:03:37;2.10;;;1.17;;
20080;SDS011;10200;49.232;9.222;2023-07-30T12:06:06;2.25;;;0.75;;
20080;SDS011;10200;49.232;9.222;2023-07-30T12:08:33;1.60;;;1.00;;
20080;SDS011;10200;49.232;9.222;2023-07-30T12:11:04;2.20;;;1.00;;
20080;SDS011;10200;49.232;9.222;2023-07-30T12:13:30;1.35;;;0.90;;
20080;SDS011;10200;49.232;9.222;2023-07-30T12:15:57;1.77;;;0.90;;
20080;SDS011;10200;49.232;9.222;2023-07-30T12:18:23;1.42;;;0.95;;
20080;SDS011;10200;49.232;9.222;2023-07-30T12:20:51;1.48;;;0.98;;
20080;SDS011;10200;49.232;9.222;2023-07-30T12:23:18;0.95;;;0.80;;
20080;SDS011;10200;49.232;9.222;2023-07-30T12:25:45;2.30;;;1.15;;
20080;SDS011;10200;49.232;9.222;2023-07-30T12:28:11;5.75;;;0.90;;
20080;SDS011;10200;49.232;9.222;2023-07-30T12:30:37;3.05;;;1.00;;
20080;SDS011;10200;49.232;9.222;2023-07-30T12:33:06;5.03;;;1.35;;
20080;SDS011;10200;49.232;9.222;2023-07-30T12:35:32;1.63;;;1.05;;
20080;SDS011;10200;49.232;9.222;2023-07-30T12:37:58;2.47;;;0.82;;
20080;SDS011;10200;49.232;9.222;2023-07-30T12:40:25;3.50;;;1.33;;
20080;SDS011;10200;49.232;9.222;2023-07-30T12:42:50;1.20;;;0.85;;
20080;SDS011;10200;49.232;9.222;2023-07-30T12:45:16;1.10;;;0.77;;
20080;SDS011;10200;49.232;9.222;2023-07-30T12:47:42;2.75;;;1.10;;
20080;SDS011;10200;49.232;9.222;2023-07-30T12:50:07;3.30;;;0.90;;
20080;SDS011;10200;49.232;9.222;2023-07-30T12:52:33;1.33;;;0.82;;
20080;SDS011;10200;49.232;9.222;2023-07-30T12:55:00;1.58;;;0.80;;
20080;SDS011;10200;49.232;9.222;2023-07-30T12:57:26;2.17;;;1.00;;
20080;SDS011;10200;49.232;9.222;2023-07-30T12:59:52;1.10;;;0.75;;
20080;SDS011;10200;49.232;9.222;2023-07-30T13:02:18;1.40;;;1.30;;
20080;SDS011;10200;49.232;9.222;2023-07-30T13:04:43;2.63;;;0.95;;
20080;SDS011;10200;49.232;9.222;2023-07-30T13:07:09;1.25;;;1.00;;
20080;SDS011;10200;49.232;9.222;2023-07-30T13:09:35;3.28;;;1.00;;
20080;SDS011;10200;49.232;9.222;2023-07-30T13:12:00;2.22;;;1.10;;
20080;SDS011;10200;49.232;9.222;2023-07-30T13:14:26;2.25;;;1.45;;
20080;SDS011;10200;49.232;9.222;2023-07-30T13:16:51;3.08;;;0.90;;
20080;SDS011;10200;49.232;9.222;2023-07-30T13:19:17;2.10;;;1.05;;
20080;SDS011;10200;49.232;9.222;2023-07-30T13:21:43;5.68;;;1.15;;
20080;SDS011;10200;49.232;9.222;2023-07-30T13:24:08;2.85;;;1.50;;
20080;SDS011;10200;49.232;9.222;2023-07-30T13:26:34;1.73;;;1.05;;
20080;SDS011;10200;49.232;9.222;2023-07-30T13:29:00;3.30;;;1.25;;
20080;SDS011;10200;49.232;9.222;2023-07-30T13:31:26;2.47;;;0.93;;
20080;SDS011;10200;49.232;9.222;2023-07-30T13:33:52;3.88;;;1.05;;
20080;SDS011;10200;49.232;9.222;2023-07-30T13:36:17;1.77;;;0.98;;
20080;SDS011;10200;49.232;9.222;2023-07-30T13:38:43;2.72;;;1.20;;
20080;SDS011;10200;49.232;9.222;2023-07-30T13:41:09;3.55;;;1.30;;
20080;SDS011;10200;49.232;9.222;2023-07-30T13:43:35;2.42;;;1.27;;
20080;SDS011;10200;49.232;9.222;2023-07-30T13:46:00;2.88;;;0.93;;
20080;SDS011;10200;49.232;9.222;2023-07-30T13:48:26;3.50;;;1.38;;
20080;SDS011;10200;49.232;9.222;2023-07-30T13:50:52;5.10;;;1.35;;
20080;SDS011;10200;49.232;9.222;2023-07-30T13:53:18;4.32;;;1.35;;
20080;SDS011;10200;49.232;9.222;2023-07-30T13:55:44;4.60;;;1.42;;
20080;SDS011;10200;49.232;9.222;2023-07-30T13:58:10;3.13;;;1.33;;
20080;SDS011;10200;49.232;9.222;2023-07-30T14:00:36;2.38;;;1.20;;
20080;SDS011;10200;49.232;9.222;2023-07-30T14:03:02;1.63;;;1.08;;
20080;SDS011;10200;49.232;9.222;2023-07-30T14:05:28;6.07;;;1.40;;
20080;SDS011;10200;49.232;9.222;2023-07-30T14:07:54;2.90;;;1.20;;
20080;SDS011;10200;49.232;9.222;2023-07-30T14:10:22;3.45;;;1.10;;
20080;SDS011;10200;49.232;9.222;2023-07-30T14:12:48;9.23;;;2.03;;
20080;SDS011;10200;49.232;9.222;2023-07-30T14:15:14;3.35;;;1.08;;
20080;SDS011;10200;49.232;9.222;2023-07-30T14:17:41;2.80;;;1.35;;
20080;SDS011;10200;49.232;9.222;2023-07-30T14:20:07;5.07;;;1.20;;
20080;SDS011;10200;49.232;9.222;2023-07-30T14:22:34;4.18;;;1.30;;
20080;SDS011;10200;49.232;9.222;2023-07-30T14:25:00;3.60;;;1.45;;
20080;SDS011;10200;49.232;9.222;2023-07-30T14:27:26;2.35;;;0.90;;
20080;SDS011;10200;49.232;9.222;2023-07-30T14:29:51;1.60;;;1.17;;
20080;SDS011;10200;49.232;9.222;2023-07-30T14:32:18;3.90;;;1.33;;
20080;SDS011;10200;49.232;9.222;2023-07-30T14:34:45;1.80;;;1.08;;
20080;SDS011;10200;49.232;9.222;2023-07-30T14:37:10;3.70;;;1.35;;
20080;SDS011;10200;49.232;9.222;2023-07-30T14:39:36;2.53;;;1.20;;
20080;SDS011;10200;49.232;9.222;2023-07-30T14:42:02;2.15;;;1.08;;
20080;SDS011;10200;49.232;9.222;2023-07-30T14:44:28;2.47;;;1.30;;
20080;SDS011;10200;49.232;9.222;2023-07-30T14:46:53;2.08;;;1.33;;
20080;SDS011;10200;49.232;9.222;2023-07-30T14:49:19;2.35;;;1.40;;
20080;SDS011;10200;49.232;9.222;2023-07-30T14:51:45;5.28;;;1.20;;
20080;SDS011;10200;49.232;9.222;2023-07-30T14:54:10;4.28;;;1.52;;